Bethel, Washington
Current Conditions -  °F | °C
As of 4:29 AM on Monday 20 Oct 2014 (Local Time) from KTCM Reporting Station
Overcast Overcast  
Wind Chill: 57°   Ceiling: 4100
Heat Index: 57°   Visibility: 10mi
Dew Point: 57°   Wind: 0mph
Humidity: 100%   Direction: NA
Pressure: 29.7"   Gusts: NA
Location:  47.0761°N, 122.396°W
Report Text: KTCM 201129Z AUTO 00000KT 10SM OVC041 14/14 A2970 RMK AO2
Loading
Personal Weather Stations






























Interactive Weather Map
Tropical Storm Tracking
New forecast layout! Learn more

10-Day Weather Forecast

Advertisements
Track Severe Weather on mobile